createdAt,value
2019-03-11T00:01:32.911Z,6.40
2019-03-11T00:04:03.436Z,6.30
2019-03-11T00:06:33.931Z,6.30
2019-03-11T00:09:05.053Z,6.30
2019-03-11T00:11:35.448Z,6.40
2019-03-11T00:14:05.840Z,6.40
2019-03-11T00:16:36.254Z,6.30
2019-03-11T00:19:06.669Z,6.30
2019-03-11T00:21:37.107Z,6.20
2019-03-11T00:24:07.530Z,6.30
2019-03-11T00:26:37.949Z,6.10
2019-03-11T00:29:08.306Z,6.00
2019-03-11T00:31:38.788Z,5.90
2019-03-11T00:34:09.185Z,6.00
2019-03-11T00:36:39.582Z,6.00
2019-03-11T00:39:10.065Z,6.00
2019-03-11T00:41:40.426Z,5.90
2019-03-11T00:44:10.872Z,5.90
2019-03-11T00:46:41.268Z,5.90
2019-03-11T00:49:11.772Z,5.90
2019-03-11T00:51:42.127Z,5.80
2019-03-11T00:54:12.535Z,5.70
2019-03-11T00:56:42.903Z,5.70
2019-03-11T00:59:13.386Z,5.60
2019-03-11T01:01:43.807Z,5.50
2019-03-11T01:04:14.270Z,5.50
2019-03-11T01:06:44.692Z,5.50
2019-03-11T01:09:15.144Z,5.60
2019-03-11T01:11:45.534Z,5.50
2019-03-11T01:14:16.010Z,5.40
2019-03-11T01:16:46.426Z,5.40
2019-03-11T01:19:16.797Z,5.30
2019-03-11T01:21:47.249Z,5.40
2019-03-11T01:24:17.611Z,5.30
2019-03-11T01:26:47.991Z,5.20
2019-03-11T01:29:18.373Z,5.30
2019-03-11T01:31:48.754Z,5.20
2019-03-11T01:34:19.166Z,5.30
2019-03-11T01:36:49.556Z,5.30
2019-03-11T01:39:19.914Z,5.30
2019-03-11T01:41:50.263Z,5.20
2019-03-11T01:44:20.663Z,5.00
2019-03-11T01:46:51.019Z,4.90
2019-03-11T01:49:23.830Z,5.00
2019-03-11T01:51:53.497Z,5.00
2019-03-11T01:54:23.950Z,4.80
2019-03-11T01:56:54.306Z,4.80
2019-03-11T01:59:24.693Z,4.90
2019-03-11T02:01:55.073Z,4.90
2019-03-11T02:04:25.425Z,4.80
2019-03-11T02:06:55.834Z,4.80
2019-03-11T02:09:26.272Z,4.70
2019-03-11T02:11:56.658Z,4.80
2019-03-11T02:14:27.067Z,4.80
2019-03-11T02:16:57.449Z,4.60
2019-03-11T02:19:27.876Z,4.70
2019-03-11T02:21:58.278Z,4.80
2019-03-11T02:24:28.647Z,4.70
2019-03-11T02:26:59.085Z,4.60
2019-03-11T02:29:29.450Z,4.50
2019-03-11T02:31:59.883Z,4.60
2019-03-11T02:34:30.300Z,4.60
2019-03-11T02:37:00.658Z,4.60
2019-03-11T02:39:31.050Z,4.60
2019-03-11T02:42:01.451Z,4.50
2019-03-11T02:44:31.799Z,4.60
2019-03-11T02:47:02.180Z,4.60
2019-03-11T02:49:32.515Z,4.70
2019-03-11T02:52:02.883Z,4.50
2019-03-11T02:54:33.270Z,4.60
2019-03-11T02:57:03.680Z,4.50
2019-03-11T02:59:34.055Z,4.60
2019-03-11T03:02:23.399Z,4.70
2019-03-11T03:05:01.016Z,4.50
2019-03-11T03:07:31.494Z,4.30
2019-03-11T03:10:01.853Z,4.30
2019-03-11T03:12:32.285Z,4.10
2019-03-11T03:15:02.645Z,4.10
2019-03-11T03:17:33.006Z,4.20
2019-03-11T03:20:03.360Z,4.10
2019-03-11T03:22:33.724Z,4.00
2019-03-11T03:25:04.609Z,4.10
2019-03-11T03:27:34.995Z,4.10
2019-03-11T03:30:07.287Z,4.10
2019-03-11T03:32:37.630Z,4.20
2019-03-11T03:35:08.116Z,4.40
2019-03-11T03:37:38.538Z,4.40
2019-03-11T03:40:09.167Z,4.40
2019-03-11T03:42:39.656Z,4.40
2019-03-11T03:45:25.031Z,4.50
2019-03-11T03:47:55.393Z,4.50
2019-03-11T03:50:25.998Z,4.60
2019-03-11T03:52:56.349Z,4.60
2019-03-11T03:55:26.773Z,4.40
2019-03-11T03:57:57.192Z,4.50
2019-03-11T04:00:27.629Z,4.60
2019-03-11T04:02:58.059Z,4.60
2019-03-11T04:05:28.425Z,4.50
2019-03-11T04:07:58.775Z,4.40
2019-03-11T04:10:32.285Z,4.40
2019-03-11T04:13:01.217Z,4.40
2019-03-11T04:15:31.641Z,4.30
2019-03-11T04:18:02.078Z,4.30
2019-03-11T04:20:32.538Z,4.20
2019-03-11T04:23:03.155Z,4.20
2019-03-11T04:25:34.138Z,4.20
2019-03-11T04:28:05.098Z,4.20
2019-03-11T04:30:35.489Z,4.20
2019-03-11T04:33:05.868Z,4.10
2019-03-11T04:35:36.231Z,4.00
2019-03-11T04:38:06.561Z,4.00
2019-03-11T04:40:36.945Z,3.90
2019-03-11T04:43:07.296Z,3.80
2019-03-11T04:45:37.661Z,3.90
2019-03-11T04:48:08.050Z,4.00
2019-03-11T04:50:38.749Z,4.00
2019-03-11T04:53:09.078Z,3.80
2019-03-11T04:55:39.430Z,3.80
2019-03-11T04:58:09.833Z,3.90
2019-03-11T05:00:40.262Z,3.80
2019-03-11T05:03:20.783Z,3.70
2019-03-11T05:05:51.125Z,3.70
2019-03-11T05:08:21.474Z,3.60
2019-03-11T05:10:51.821Z,3.50
2019-03-11T05:13:22.179Z,3.40
2019-03-11T05:15:52.603Z,3.30
2019-03-11T05:18:22.972Z,3.20
2019-03-11T05:20:53.754Z,3.20
2019-03-11T05:23:24.109Z,3.00
2019-03-11T05:25:54.461Z,3.00
2019-03-11T05:28:24.814Z,2.90
2019-03-11T05:30:55.159Z,2.90
2019-03-11T05:33:25.546Z,2.80
2019-03-11T05:35:55.970Z,2.80
2019-03-11T05:38:26.345Z,2.90
2019-03-11T05:40:56.729Z,3.00
2019-03-11T05:43:27.086Z,3.10
2019-03-11T05:45:57.442Z,3.10
2019-03-11T05:48:27.808Z,3.20
2019-03-11T05:50:58.138Z,3.20
2019-03-11T05:53:28.506Z,3.30
2019-03-11T05:55:58.958Z,3.40
2019-03-11T05:58:29.487Z,3.50
2019-03-11T06:00:59.840Z,3.60
2019-03-11T06:03:30.244Z,3.70
2019-03-11T06:06:00.573Z,3.80
2019-03-11T06:08:30.958Z,3.90
2019-03-11T06:11:01.341Z,4.00
2019-03-11T06:13:35.923Z,4.00
2019-03-11T06:16:03.875Z,4.10
2019-03-11T06:18:49.169Z,4.20
2019-03-11T06:21:28.197Z,4.20
2019-03-11T06:23:58.579Z,4.20
2019-03-11T06:26:28.953Z,4.30
2019-03-11T06:28:59.394Z,4.30
2019-03-11T06:31:29.753Z,4.40
2019-03-11T06:34:00.162Z,4.30
2019-03-11T06:36:30.522Z,4.40
2019-03-11T06:39:05.753Z,4.40
2019-03-11T06:41:32.965Z,4.40
2019-03-11T06:44:03.307Z,4.30
2019-03-11T06:46:33.670Z,4.20
2019-03-11T06:49:04.122Z,4.30
2019-03-11T06:51:34.485Z,4.30
2019-03-11T06:54:04.865Z,4.30
2019-03-11T06:56:35.234Z,4.10
2019-03-11T06:59:05.570Z,4.10
2019-03-11T07:01:37.542Z,4.00
2019-03-11T07:04:07.885Z,4.10
2019-03-11T07:06:38.326Z,4.20
2019-03-11T07:09:09.611Z,4.10
2019-03-11T07:11:40.017Z,4.20
2019-03-11T07:14:10.373Z,4.30
2019-03-11T07:16:40.737Z,4.40
2019-03-11T07:19:11.173Z,4.40
2019-03-11T07:21:41.569Z,4.40
2019-03-11T07:24:11.893Z,4.40
2019-03-11T07:26:42.238Z,4.40
2019-03-11T07:29:12.586Z,4.40
2019-03-11T07:31:42.946Z,4.50
2019-03-11T07:34:13.313Z,4.40
2019-03-11T07:36:43.741Z,4.40
2019-03-11T07:39:14.096Z,4.30
2019-03-11T07:41:44.442Z,4.40
2019-03-11T07:44:14.778Z,4.40
2019-03-11T07:46:45.646Z,4.40
2019-03-11T07:49:16.355Z,4.40
2019-03-11T07:51:47.149Z,4.40
2019-03-11T07:54:17.474Z,4.40
2019-03-11T07:56:47.850Z,4.40
2019-03-11T07:59:18.197Z,4.50
2019-03-11T08:01:48.545Z,4.50
2019-03-11T08:04:18.929Z,4.50
2019-03-11T08:06:49.295Z,4.40
2019-03-11T08:09:19.706Z,4.40
2019-03-11T08:11:50.047Z,4.40
2019-03-11T08:14:20.389Z,4.40
2019-03-11T08:16:50.777Z,4.40
2019-03-11T08:19:21.120Z,4.40
2019-03-11T08:21:51.477Z,4.40
2019-03-11T08:24:21.877Z,4.30
2019-03-11T08:26:52.227Z,4.40
2019-03-11T08:29:22.598Z,4.30
2019-03-11T08:31:52.978Z,4.40
2019-03-11T08:34:23.333Z,4.60
2019-03-11T08:36:53.706Z,4.90
2019-03-11T08:39:24.188Z,5.20
2019-03-11T08:41:54.587Z,5.70
2019-03-11T08:44:24.945Z,6.30
2019-03-11T08:46:55.319Z,6.80
2019-03-11T08:49:25.670Z,7.30
2019-03-11T08:51:56.085Z,7.30
2019-03-11T08:54:26.478Z,7.20
2019-03-11T08:56:56.842Z,6.90
2019-03-11T08:59:27.282Z,6.70
2019-03-11T09:01:57.660Z,6.70
2019-03-11T09:04:28.022Z,6.70
2019-03-11T09:06:58.374Z,6.70
2019-03-11T09:09:28.755Z,6.50
2019-03-11T09:11:59.113Z,6.40
2019-03-11T09:14:29.461Z,6.40
2019-03-11T09:16:59.878Z,6.40
2019-03-11T09:19:30.222Z,6.50
2019-03-11T09:22:00.601Z,6.40
2019-03-11T09:24:30.946Z,6.30
2019-03-11T09:27:01.306Z,6.30
2019-03-11T09:29:31.650Z,6.20
2019-03-11T09:32:02.089Z,6.10
2019-03-11T09:34:32.461Z,6.10
2019-03-11T09:37:02.838Z,6.20
2019-03-11T09:39:33.226Z,6.30
2019-03-11T09:42:03.601Z,6.60
2019-03-11T09:44:33.945Z,6.90
2019-03-11T09:47:04.339Z,7.00
2019-03-11T09:49:34.713Z,6.70
2019-03-11T09:52:05.078Z,6.70
2019-03-11T09:54:35.478Z,6.60
2019-03-11T09:57:05.833Z,6.60
2019-03-11T09:59:36.262Z,6.80
2019-03-11T10:02:06.938Z,6.80
2019-03-11T10:04:37.279Z,6.90
2019-03-11T10:07:07.701Z,7.20
2019-03-11T10:09:38.082Z,7.40
2019-03-11T10:12:08.519Z,7.40
2019-03-11T10:14:38.870Z,7.50
2019-03-11T10:17:09.308Z,7.70
2019-03-11T10:19:39.672Z,7.80
2019-03-11T10:22:10.046Z,8.00
2019-03-11T10:24:40.467Z,8.00
2019-03-11T10:27:10.826Z,7.90
2019-03-11T10:29:41.186Z,8.10
2019-03-11T10:32:11.560Z,8.10
2019-03-11T10:34:41.922Z,8.10
2019-03-11T10:37:12.278Z,8.10
2019-03-11T10:39:42.661Z,8.10
2019-03-11T10:42:13.023Z,8.20
2019-03-11T10:44:43.390Z,8.10
2019-03-11T10:47:13.746Z,7.80
2019-03-11T10:49:44.130Z,7.90
2019-03-11T10:52:14.526Z,7.90
2019-03-11T10:54:44.906Z,7.60
2019-03-11T10:57:15.254Z,7.40
2019-03-11T10:59:45.642Z,7.20
2019-03-11T11:02:15.994Z,6.80
2019-03-11T11:04:48.020Z,6.80
2019-03-11T11:07:18.687Z,6.90
2019-03-11T11:09:49.079Z,6.80
2019-03-11T11:12:19.603Z,7.10
2019-03-11T11:14:50.004Z,6.90
2019-03-11T11:17:20.381Z,6.70
2019-03-11T11:19:50.823Z,6.80
2019-03-11T11:22:21.194Z,6.70
2019-03-11T11:24:51.566Z,6.80
2019-03-11T11:27:21.942Z,6.70
2019-03-11T11:29:52.353Z,6.90
2019-03-11T11:32:22.712Z,7.00
2019-03-11T11:34:53.090Z,7.10
2019-03-11T11:37:23.451Z,7.00
2019-03-11T11:39:53.863Z,6.80
2019-03-11T11:42:24.233Z,6.70
2019-03-11T11:44:54.596Z,6.60
2019-03-11T11:47:24.987Z,6.70
2019-03-11T11:49:55.376Z,6.70
2019-03-11T11:52:25.761Z,6.70
2019-03-11T11:54:56.193Z,6.70
2019-03-11T11:57:26.558Z,6.70
2019-03-11T11:59:57.039Z,6.80
2019-03-11T12:02:27.427Z,6.70
2019-03-11T12:04:57.799Z,6.70
2019-03-11T12:07:28.288Z,6.50
2019-03-11T12:09:58.742Z,6.30
2019-03-11T12:12:29.144Z,6.40
2019-03-11T12:14:59.546Z,6.50
2019-03-11T12:17:29.910Z,6.60
2019-03-11T12:20:00.389Z,6.90
2019-03-11T12:22:30.873Z,7.30
2019-03-11T12:25:01.226Z,7.60
2019-03-11T12:27:31.609Z,7.90
2019-03-11T12:30:01.973Z,8.10
2019-03-11T12:32:32.361Z,8.30
2019-03-11T12:35:02.737Z,8.30
2019-03-11T12:37:33.110Z,8.40
2019-03-11T12:40:03.506Z,8.60
2019-03-11T12:42:33.915Z,8.70
2019-03-11T12:45:05.017Z,8.70
2019-03-11T12:47:35.418Z,8.40
2019-03-11T12:50:06.590Z,8.40
2019-03-11T12:52:36.999Z,8.50
2019-03-11T12:55:07.542Z,8.70
2019-03-11T12:57:37.957Z,8.80
2019-03-11T13:00:08.938Z,8.70
2019-03-11T13:02:39.301Z,8.40
2019-03-11T13:05:09.715Z,8.60
2019-03-11T13:07:40.114Z,8.50
2019-03-11T13:10:12.590Z,8.60
2019-03-11T13:12:42.978Z,8.70
2019-03-11T13:15:13.910Z,8.80
2019-03-11T13:17:44.406Z,8.70
2019-03-11T13:20:20.971Z,8.70
2019-03-11T13:22:51.608Z,8.60
2019-03-11T13:25:21.995Z,8.30
2019-03-11T13:27:52.367Z,8.40
2019-03-11T13:30:22.771Z,8.40
2019-03-11T13:32:53.139Z,8.40
2019-03-11T13:35:24.814Z,8.10
2019-03-11T13:37:55.358Z,8.10
2019-03-11T13:40:25.754Z,8.30
2019-03-11T13:42:56.126Z,8.30
2019-03-11T13:45:26.565Z,8.20
2019-03-11T13:47:56.926Z,7.80
2019-03-11T13:50:27.324Z,7.50
2019-03-11T13:52:57.703Z,7.50
2019-03-11T13:55:28.093Z,7.80
2019-03-11T13:57:58.455Z,7.90
2019-03-11T14:00:28.900Z,8.00
2019-03-11T14:02:59.351Z,8.10
2019-03-11T14:05:29.743Z,8.10
2019-03-11T14:08:00.144Z,8.00
2019-03-11T14:10:30.607Z,8.20
2019-03-11T14:13:01.054Z,8.10
2019-03-11T14:15:31.643Z,8.10
2019-03-11T14:18:01.995Z,8.00
2019-03-11T14:20:32.406Z,8.00
2019-03-11T14:23:03.084Z,8.00
2019-03-11T14:25:33.534Z,8.20
2019-03-11T14:28:03.917Z,8.30
2019-03-11T14:30:34.301Z,7.90
2019-03-11T14:33:05.871Z,7.60
2019-03-11T14:35:36.342Z,7.60
2019-03-11T14:38:06.858Z,7.80
2019-03-11T14:40:37.229Z,7.90
2019-03-11T14:43:07.609Z,7.90
2019-03-11T14:45:38.062Z,8.10
2019-03-11T14:48:08.450Z,8.10
2019-03-11T14:50:38.826Z,8.20
2019-03-11T14:53:09.220Z,8.30
2019-03-11T14:55:39.568Z,8.20
2019-03-11T14:58:11.062Z,8.00
2019-03-11T15:00:41.418Z,7.60
2019-03-11T15:03:11.862Z,7.90
2019-03-11T15:05:42.231Z,8.20
2019-03-11T15:08:12.875Z,8.00
2019-03-11T15:10:43.378Z,7.90
2019-03-11T15:13:13.755Z,8.10
2019-03-11T15:15:44.179Z,8.40
2019-03-11T15:18:14.590Z,8.50
2019-03-11T15:20:44.943Z,8.40
2019-03-11T15:23:20.471Z,8.20
2019-03-11T15:25:47.423Z,8.10
2019-03-11T15:28:18.150Z,8.00
2019-03-11T15:30:48.695Z,8.10
2019-03-11T15:33:19.075Z,8.10
2019-03-11T15:35:49.445Z,8.00
2019-03-11T15:38:19.831Z,7.90
2019-03-11T15:40:52.225Z,8.00
2019-03-11T15:43:22.636Z,7.90
2019-03-11T15:45:53.003Z,7.90
2019-03-11T15:48:23.879Z,7.80
2019-03-11T15:50:54.242Z,7.90
2019-03-11T15:53:24.613Z,7.80
2019-03-11T15:55:54.970Z,7.60
2019-03-11T15:58:25.457Z,7.50
2019-03-11T16:00:55.889Z,7.30
2019-03-11T16:03:35.930Z,7.00
2019-03-11T16:05:58.362Z,6.80
2019-03-11T16:08:28.808Z,6.50
2019-03-11T16:10:59.182Z,6.30
2019-03-11T16:13:29.549Z,6.30
2019-03-11T16:15:59.932Z,6.50
2019-03-11T16:18:30.334Z,6.60
2019-03-11T16:21:00.735Z,6.80
2019-03-11T16:23:31.127Z,6.90
2019-03-11T16:26:01.498Z,7.00
2019-03-11T16:28:31.926Z,6.90
2019-03-11T16:31:02.347Z,6.90
2019-03-11T16:33:34.113Z,6.90
2019-03-11T16:36:04.838Z,6.90
2019-03-11T16:38:35.261Z,6.70
2019-03-11T16:41:05.648Z,6.60
2019-03-11T16:43:36.094Z,6.40
2019-03-11T16:46:06.500Z,6.50
2019-03-11T16:48:36.934Z,6.40
2019-03-11T16:51:07.369Z,6.40
2019-03-11T16:53:37.753Z,6.40
2019-03-11T16:56:08.202Z,6.40
2019-03-11T16:58:38.580Z,6.20
2019-03-11T17:01:10.380Z,6.30
2019-03-11T17:03:40.838Z,6.40
2019-03-11T17:06:11.287Z,6.40
2019-03-11T17:08:41.675Z,6.50
2019-03-11T17:11:12.146Z,6.50
2019-03-11T17:13:42.515Z,6.30
2019-03-11T17:16:12.899Z,6.30
2019-03-11T17:18:43.268Z,6.30
2019-03-11T17:21:13.693Z,6.20
2019-03-11T17:23:44.120Z,6.10
2019-03-11T17:26:14.551Z,6.00
2019-03-11T17:28:44.953Z,5.90
2019-03-11T17:31:15.366Z,5.90
2019-03-11T17:33:45.751Z,5.90
2019-03-11T17:36:16.107Z,5.90
2019-03-11T17:38:46.491Z,5.90
2019-03-11T17:41:17.007Z,5.90
2019-03-11T17:43:47.364Z,5.80
2019-03-11T17:46:17.851Z,5.80
2019-03-11T17:48:48.339Z,5.80
2019-03-11T17:51:18.709Z,5.90
2019-03-11T17:53:49.093Z,5.90
2019-03-11T17:56:19.470Z,5.80
2019-03-11T17:58:49.998Z,5.70
2019-03-11T18:01:20.382Z,5.80
2019-03-11T18:03:50.790Z,5.70
2019-03-11T18:06:21.167Z,5.60
2019-03-11T18:08:51.575Z,5.70
2019-03-11T18:11:21.949Z,5.70
2019-03-11T18:13:52.338Z,5.80
2019-03-11T18:16:22.719Z,5.70
2019-03-11T18:18:54.789Z,5.60
2019-03-11T18:21:25.294Z,5.70
2019-03-11T18:23:55.703Z,5.70
2019-03-11T18:26:26.184Z,5.50
2019-03-11T18:28:56.585Z,5.60
2019-03-11T18:31:26.947Z,5.70
2019-03-11T18:33:57.355Z,5.60
2019-03-11T18:36:27.775Z,5.50
2019-03-11T18:38:58.246Z,5.50
2019-03-11T18:41:28.698Z,5.50
2019-03-11T18:43:59.121Z,5.50
2019-03-11T18:46:29.568Z,5.50
2019-03-11T18:48:59.955Z,5.60
2019-03-11T18:51:30.419Z,5.70
2019-03-11T18:54:00.910Z,5.60
2019-03-11T18:56:31.313Z,5.70
2019-03-11T18:59:01.788Z,5.80
2019-03-11T19:01:32.358Z,5.80
2019-03-11T19:04:02.854Z,5.80
2019-03-11T19:06:33.364Z,5.70
2019-03-11T19:09:04.279Z,5.70
2019-03-11T19:11:34.727Z,5.80
2019-03-11T19:14:05.349Z,5.80
2019-03-11T19:16:35.845Z,5.60
2019-03-11T19:19:06.444Z,5.60
2019-03-11T19:21:36.897Z,5.60
2019-03-11T19:24:07.334Z,5.60
2019-03-11T19:26:37.814Z,5.70
2019-03-11T19:29:08.326Z,5.70
2019-03-11T19:31:38.869Z,5.80
2019-03-11T19:34:09.349Z,5.90
2019-03-11T19:36:39.744Z,6.00
2019-03-11T19:39:13.723Z,5.90
2019-03-11T19:41:44.199Z,5.70
2019-03-11T19:44:14.818Z,5.70
2019-03-11T19:46:45.274Z,5.80
2019-03-11T19:49:15.863Z,5.70
2019-03-11T19:51:46.358Z,5.70
2019-03-11T19:54:16.882Z,5.70
2019-03-11T19:56:47.428Z,5.80
2019-03-11T19:59:17.899Z,5.90
2019-03-11T20:01:48.515Z,5.80
2019-03-11T20:04:19.022Z,5.70
2019-03-11T20:06:49.445Z,5.70
2019-03-11T20:09:19.993Z,5.70
2019-03-11T20:11:50.446Z,5.60
2019-03-11T20:14:20.996Z,5.70
2019-03-11T20:16:51.416Z,5.70
2019-03-11T20:19:21.876Z,5.80
2019-03-11T20:21:52.275Z,5.80
2019-03-11T20:24:22.857Z,5.80
2019-03-11T20:26:53.362Z,5.80
2019-03-11T20:29:23.819Z,5.70
2019-03-11T20:31:54.318Z,5.70
2019-03-11T20:34:24.809Z,5.60
2019-03-11T20:36:55.227Z,5.70
2019-03-11T20:39:25.676Z,5.70
2019-03-11T20:41:56.179Z,5.60
2019-03-11T20:44:26.653Z,5.70
2019-03-11T20:46:57.008Z,5.80
2019-03-11T20:49:27.490Z,5.70
2019-03-11T20:51:57.941Z,5.70
2019-03-11T20:54:30.749Z,5.70
2019-03-11T20:57:01.202Z,5.60
2019-03-11T20:59:31.935Z,5.70
2019-03-11T21:02:02.369Z,5.80
2019-03-11T21:04:35.339Z,5.70
2019-03-11T21:07:05.759Z,5.60
2019-03-11T21:09:36.237Z,5.60
2019-03-11T21:12:06.686Z,5.50
2019-03-11T21:14:37.183Z,5.50
2019-03-11T21:17:07.700Z,5.50
2019-03-11T21:19:38.322Z,5.50
2019-03-11T21:22:08.796Z,5.50
2019-03-11T21:24:39.273Z,5.50
2019-03-11T21:27:09.767Z,5.50
2019-03-11T21:29:40.181Z,5.50
2019-03-11T21:32:10.662Z,5.40
2019-03-11T21:34:41.138Z,5.30
2019-03-11T21:37:14.615Z,5.20
2019-03-11T21:39:43.612Z,5.20
2019-03-11T21:42:14.351Z,5.20
2019-03-11T21:44:44.879Z,5.30
2019-03-11T21:47:15.390Z,5.20
2019-03-11T21:49:45.930Z,5.30
2019-03-11T21:52:16.372Z,5.20
2019-03-11T21:54:47.667Z,5.20
2019-03-11T21:57:18.377Z,5.20
2019-03-11T21:59:48.915Z,5.30
2019-03-11T22:02:19.542Z,5.40
2019-03-11T22:04:49.906Z,5.40
2019-03-11T22:07:20.398Z,5.30
2019-03-11T22:09:50.828Z,5.20
2019-03-11T22:12:21.252Z,5.30
2019-03-11T22:14:52.051Z,5.30
2019-03-11T22:17:22.396Z,5.20
2019-03-11T22:19:52.794Z,5.20
2019-03-11T22:22:23.218Z,5.30
2019-03-11T22:24:53.644Z,5.20
2019-03-11T22:27:24.094Z,5.30
2019-03-11T22:29:54.475Z,5.10
2019-03-11T22:32:25.742Z,5.10
2019-03-11T22:34:56.131Z,4.90
2019-03-11T22:37:26.557Z,5.00
2019-03-11T22:39:56.933Z,4.80
2019-03-11T22:42:27.339Z,4.70
2019-03-11T22:44:57.725Z,4.80
2019-03-11T22:47:28.134Z,4.80
2019-03-11T22:49:58.557Z,4.90
2019-03-11T22:52:29.014Z,5.00
2019-03-11T22:54:59.411Z,5.00
2019-03-11T22:57:30.062Z,4.90
2019-03-11T23:00:00.574Z,5.00
2019-03-11T23:02:40.227Z,5.10
2019-03-11T23:05:03.126Z,5.10
2019-03-11T23:07:33.483Z,5.00
2019-03-11T23:10:04.024Z,5.00
2019-03-11T23:12:34.430Z,4.90
2019-03-11T23:15:05.055Z,5.00
2019-03-11T23:17:35.446Z,4.90
2019-03-11T23:20:06.786Z,4.80
2019-03-11T23:22:37.178Z,5.00
2019-03-11T23:25:07.561Z,5.00
2019-03-11T23:27:37.973Z,4.90
2019-03-11T23:30:08.602Z,4.80
2019-03-11T23:32:38.993Z,4.70
2019-03-11T23:35:09.374Z,4.70
2019-03-11T23:37:39.798Z,4.60
2019-03-11T23:40:10.185Z,4.60
2019-03-11T23:42:40.587Z,4.70
2019-03-11T23:45:11.136Z,4.70
2019-03-11T23:47:41.573Z,4.70
2019-03-11T23:50:11.965Z,4.60
2019-03-11T23:52:42.420Z,4.60
2019-03-11T23:55:13.021Z,4.60
2019-03-11T23:57:43.409Z,4.60
